sensor_id;sensor_type;location;lat;lon;timestamp;temperature;humidity
18067;DHT22;9158;51.528;7.192;2023-03-23T00:00:16;11.10;99.90
18067;DHT22;9158;51.528;7.192;2023-03-23T00:00:47;11.10;99.90
18067;DHT22;9158;51.528;7.192;2023-03-23T00:01:21;11.10;99.90
18067;DHT22;9158;51.528;7.192;2023-03-23T00:01:53;11.10;99.90
18067;DHT22;9158;51.528;7.192;2023-03-23T00:02:25;11.10;99.90
18067;DHT22;9158;51.528;7.192;2023-03-23T00:02:57;11.10;99.90
18067;DHT22;9158;51.528;7.192;2023-03-23T00:03:28;11.10;99.90
18067;DHT22;9158;51.528;7.192;2023-03-23T00:04:03;11.10;99.90
18067;DHT22;9158;51.528;7.192;2023-03-23T00:04:40;11.10;99.90
18067;DHT22;9158;51.528;7.192;2023-03-23T00:05:19;11.10;95.40
18067;DHT22;9158;51.528;7.192;2023-03-23T00:05:52;11.20;99.80
18067;DHT22;9158;51.528;7.192;2023-03-23T00:06:57;11.20;76.40
18067;DHT22;9158;51.528;7.192;2023-03-23T00:07:38;11.20;99.90
18067;DHT22;9158;51.528;7.192;2023-03-23T00:08:44;11.20;65.70
18067;DHT22;9158;51.528;7.192;2023-03-23T00:09:26;11.20;99.90
18067;DHT22;9158;51.528;7.192;2023-03-23T00:10:22;11.20;95.00
18067;DHT22;9158;51.528;7.192;2023-03-23T00:11:04;11.20;99.90
18067;DHT22;9158;51.528;7.192;2023-03-23T00:11:35;11.20;23.10
18067;DHT22;9158;51.528;7.192;2023-03-23T00:12:06;11.20;66.90
18067;DHT22;9158;51.528;7.192;2023-03-23T00:12:38;11.20;54.20
18067;DHT22;9158;51.528;7.192;2023-03-23T00:13:12;11.20;99.90
18067;DHT22;9158;51.528;7.192;2023-03-23T00:13:45;11.20;99.90
18067;DHT22;9158;51.528;7.192;2023-03-23T00:14:17;11.20;99.90
18067;DHT22;9158;51.528;7.192;2023-03-23T00:14:53;11.20;99.90
18067;DHT22;9158;51.528;7.192;2023-03-23T00:15:24;11.20;99.90
18067;DHT22;9158;51.528;7.192;2023-03-23T00:15:56;11.20;99.90
18067;DHT22;9158;51.528;7.192;2023-03-23T00:16:31;11.20;99.90
18067;DHT22;9158;51.528;7.192;2023-03-23T00:17:03;11.20;85.20
18067;DHT22;9158;51.528;7.192;2023-03-23T00:17:35;11.20;1.00
18067;DHT22;9158;51.528;7.192;2023-03-23T00:18:06;11.20;1.00
18067;DHT22;9158;51.528;7.192;2023-03-23T00:18:36;11.20;1.00
18067;DHT22;9158;51.528;7.192;2023-03-23T00:19:10;11.20;1.00
18067;DHT22;9158;51.528;7.192;2023-03-23T00:19:43;11.20;1.00
18067;DHT22;9158;51.528;7.192;2023-03-23T00:20:17;11.20;1.00
18067;DHT22;9158;51.528;7.192;2023-03-23T00:20:50;11.20;16.60
18067;DHT22;9158;51.528;7.192;2023-03-23T00:21:23;11.30;1.00
18067;DHT22;9158;51.528;7.192;2023-03-23T00:21:55;11.30;1.00
18067;DHT22;9158;51.528;7.192;2023-03-23T00:22:31;11.20;95.00
18067;DHT22;9158;51.528;7.192;2023-03-23T00:23:08;11.30;1.00
18067;DHT22;9158;51.528;7.192;2023-03-23T00:23:39;11.20;1.00
18067;DHT22;9158;51.528;7.192;2023-03-23T00:24:17;11.30;1.00
18067;DHT22;9158;51.528;7.192;2023-03-23T00:24:49;11.30;1.00
18067;DHT22;9158;51.528;7.192;2023-03-23T00:25:21;11.30;1.00
18067;DHT22;9158;51.528;7.192;2023-03-23T00:25:54;11.30;1.00
18067;DHT22;9158;51.528;7.192;2023-03-23T00:26:27;11.30;1.00
18067;DHT22;9158;51.528;7.192;2023-03-23T00:27:00;11.30;1.00
18067;DHT22;9158;51.528;7.192;2023-03-23T00:27:33;11.30;1.00
18067;DHT22;9158;51.528;7.192;2023-03-23T00:28:06;11.30;1.00
18067;DHT22;9158;51.528;7.192;2023-03-23T00:28:37;11.40;99.90
18067;DHT22;9158;51.528;7.192;2023-03-23T00:29:12;11.30;1.00
18067;DHT22;9158;51.528;7.192;2023-03-23T00:29:44;11.40;1.00
18067;DHT22;9158;51.528;7.192;2023-03-23T00:30:15;11.40;1.00
18067;DHT22;9158;51.528;7.192;2023-03-23T00:30:48;11.40;1.00
18067;DHT22;9158;51.528;7.192;2023-03-23T00:31:19;11.30;1.00
18067;DHT22;9158;51.528;7.192;2023-03-23T00:31:51;11.40;1.00
18067;DHT22;9158;51.528;7.192;2023-03-23T00:32:25;11.40;1.00
18067;DHT22;9158;51.528;7.192;2023-03-23T00:33:30;11.40;99.90
18067;DHT22;9158;51.528;7.192;2023-03-23T00:34:04;11.30;99.90
18067;DHT22;9158;51.528;7.192;2023-03-23T00:34:35;11.40;1.00
18067;DHT22;9158;51.528;7.192;2023-03-23T00:35:07;11.40;1.00
18067;DHT22;9158;51.528;7.192;2023-03-23T00:35:41;11.40;1.00
18067;DHT22;9158;51.528;7.192;2023-03-23T00:36:12;11.40;99.90
18067;DHT22;9158;51.528;7.192;2023-03-23T00:36:43;11.40;99.90
18067;DHT22;9158;51.528;7.192;2023-03-23T00:37:16;11.40;99.90
18067;DHT22;9158;51.528;7.192;2023-03-23T00:37:47;11.40;99.90
18067;DHT22;9158;51.528;7.192;2023-03-23T00:38:19;11.50;2.70
18067;DHT22;9158;51.528;7.192;2023-03-23T00:38:51;11.50;99.90
18067;DHT22;9158;51.528;7.192;2023-03-23T00:39:25;11.50;99.90
18067;DHT22;9158;51.528;7.192;2023-03-23T00:39:57;11.50;99.90
18067;DHT22;9158;51.528;7.192;2023-03-23T00:40:31;11.50;99.90
18067;DHT22;9158;51.528;7.192;2023-03-23T00:41:06;11.50;99.90
18067;DHT22;9158;51.528;7.192;2023-03-23T00:41:37;11.50;98.10
18067;DHT22;9158;51.528;7.192;2023-03-23T00:42:09;11.50;36.60
18067;DHT22;9158;51.528;7.192;2023-03-23T00:42:41;11.50;99.90
18067;DHT22;9158;51.528;7.192;2023-03-23T00:43:12;11.50;54.00
18067;DHT22;9158;51.528;7.192;2023-03-23T00:43:44;11.50;99.90
18067;DHT22;9158;51.528;7.192;2023-03-23T00:44:15;11.50;99.90
18067;DHT22;9158;51.528;7.192;2023-03-23T00:44:47;11.50;99.90
18067;DHT22;9158;51.528;7.192;2023-03-23T00:45:22;11.60;99.90
18067;DHT22;9158;51.528;7.192;2023-03-23T00:45:55;11.60;99.90
18067;DHT22;9158;51.528;7.192;2023-03-23T00:46:27;11.60;1.00
18067;DHT22;9158;51.528;7.192;2023-03-23T00:47:00;11.60;18.30
18067;DHT22;9158;51.528;7.192;2023-03-23T00:47:32;11.60;9.60
18067;DHT22;9158;51.528;7.192;2023-03-23T00:48:08;11.60;1.00
18067;DHT22;9158;51.528;7.192;2023-03-23T00:48:39;11.60;1.00
18067;DHT22;9158;51.528;7.192;2023-03-23T00:49:16;12.60;1.00
18067;DHT22;9158;51.528;7.192;2023-03-23T00:49:47;11.60;1.00
18067;DHT22;9158;51.528;7.192;2023-03-23T00:50:20;11.60;1.00
18067;DHT22;9158;51.528;7.192;2023-03-23T00:50:53;11.70;1.00
18067;DHT22;9158;51.528;7.192;2023-03-23T00:51:25;11.70;1.00
18067;DHT22;9158;51.528;7.192;2023-03-23T00:51:58;11.80;1.00
18067;DHT22;9158;51.528;7.192;2023-03-23T00:52:30;11.70;1.00
18067;DHT22;9158;51.528;7.192;2023-03-23T00:53:01;11.80;1.00
18067;DHT22;9158;51.528;7.192;2023-03-23T00:53:33;11.80;1.00
18067;DHT22;9158;51.528;7.192;2023-03-23T00:54:05;11.80;99.90
18067;DHT22;9158;51.528;7.192;2023-03-23T00:54:36;11.80;99.90
18067;DHT22;9158;51.528;7.192;2023-03-23T00:55:08;11.90;1.00
18067;DHT22;9158;51.528;7.192;2023-03-23T00:55:40;11.80;1.00
18067;DHT22;9158;51.528;7.192;2023-03-23T00:56:12;11.90;1.00
18067;DHT22;9158;51.528;7.192;2023-03-23T00:56:44;11.90;1.00
18067;DHT22;9158;51.528;7.192;2023-03-23T00:57:15;11.90;1.00
18067;DHT22;9158;51.528;7.192;2023-03-23T00:57:47;11.90;1.00
18067;DHT22;9158;51.528;7.192;2023-03-23T00:58:21;11.90;1.00
18067;DHT22;9158;51.528;7.192;2023-03-23T00:58:51;11.90;1.00
18067;DHT22;9158;51.528;7.192;2023-03-23T00:59:23;11.90;1.00
18067;DHT22;9158;51.528;7.192;2023-03-23T00:59:55;11.90;1.00
18067;DHT22;9158;51.528;7.192;2023-03-23T01:00:26;11.90;1.00
18067;DHT22;9158;51.528;7.192;2023-03-23T01:00:57;11.90;1.00
18067;DHT22;9158;51.528;7.192;2023-03-23T01:01:30;11.80;1.00
18067;DHT22;9158;51.528;7.192;2023-03-23T01:02:02;11.80;1.00
18067;DHT22;9158;51.528;7.192;2023-03-23T01:02:33;11.90;1.00
18067;DHT22;9158;51.528;7.192;2023-03-23T01:03:09;11.80;1.00
18067;DHT22;9158;51.528;7.192;2023-03-23T01:03:42;11.90;1.00
18067;DHT22;9158;51.528;7.192;2023-03-23T01:04:15;11.90;1.00
18067;DHT22;9158;51.528;7.192;2023-03-23T01:04:46;11.90;1.00
18067;DHT22;9158;51.528;7.192;2023-03-23T01:05:22;11.90;1.00
18067;DHT22;9158;51.528;7.192;2023-03-23T01:05:56;11.90;1.00
18067;DHT22;9158;51.528;7.192;2023-03-23T01:06:27;11.90;99.90
18067;DHT22;9158;51.528;7.192;2023-03-23T01:06:58;11.90;99.90
18067;DHT22;9158;51.528;7.192;2023-03-23T01:07:32;11.90;99.90
18067;DHT22;9158;51.528;7.192;2023-03-23T01:08:04;12.00;1.00
18067;DHT22;9158;51.528;7.192;2023-03-23T01:08:35;12.00;1.00
18067;DHT22;9158;51.528;7.192;2023-03-23T01:09:11;12.00;1.00
18067;DHT22;9158;51.528;7.192;2023-03-23T01:09:45;12.00;1.00
18067;DHT22;9158;51.528;7.192;2023-03-23T01:10:16;12.00;1.00
18067;DHT22;9158;51.528;7.192;2023-03-23T01:10:48;12.00;1.00
18067;DHT22;9158;51.528;7.192;2023-03-23T01:11:20;12.00;99.90
18067;DHT22;9158;51.528;7.192;2023-03-23T01:11:53;12.00;1.00
18067;DHT22;9158;51.528;7.192;2023-03-23T01:12:26;12.00;99.90
18067;DHT22;9158;51.528;7.192;2023-03-23T01:13:00;12.00;1.00
18067;DHT22;9158;51.528;7.192;2023-03-23T01:13:31;12.00;1.00
18067;DHT22;9158;51.528;7.192;2023-03-23T01:14:02;12.00;1.00
18067;DHT22;9158;51.528;7.192;2023-03-23T01:14:34;12.00;99.90
18067;DHT22;9158;51.528;7.192;2023-03-23T01:15:06;12.00;1.00
18067;DHT22;9158;51.528;7.192;2023-03-23T01:15:38;12.00;1.00
18067;DHT22;9158;51.528;7.192;2023-03-23T01:16:10;12.00;99.90
18067;DHT22;9158;51.528;7.192;2023-03-23T01:16:42;12.10;1.00
18067;DHT22;9158;51.528;7.192;2023-03-23T01:17:14;12.00;1.00
18067;DHT22;9158;51.528;7.192;2023-03-23T01:17:46;12.00;1.00
18067;DHT22;9158;51.528;7.192;2023-03-23T01:18:17;12.00;1.00
18067;DHT22;9158;51.528;7.192;2023-03-23T01:18:48;12.00;1.00
18067;DHT22;9158;51.528;7.192;2023-03-23T01:19:20;12.00;1.00
18067;DHT22;9158;51.528;7.192;2023-03-23T01:19:52;12.00;99.90
18067;DHT22;9158;51.528;7.192;2023-03-23T01:20:24;12.00;1.00
18067;DHT22;9158;51.528;7.192;2023-03-23T01:20:55;12.00;1.00
18067;DHT22;9158;51.528;7.192;2023-03-23T01:21:27;12.10;1.00
18067;DHT22;9158;51.528;7.192;2023-03-23T01:21:58;12.10;1.00
18067;DHT22;9158;51.528;7.192;2023-03-23T01:22:29;12.10;1.00
18067;DHT22;9158;51.528;7.192;2023-03-23T01:23:02;12.00;1.00
18067;DHT22;9158;51.528;7.192;2023-03-23T01:23:33;12.00;1.00
18067;DHT22;9158;51.528;7.192;2023-03-23T01:24:05;12.10;1.00
18067;DHT22;9158;51.528;7.192;2023-03-23T01:24:37;12.10;9.00
18067;DHT22;9158;51.528;7.192;2023-03-23T01:25:09;12.00;99.90
18067;DHT22;9158;51.528;7.192;2023-03-23T01:25:41;12.00;99.90
18067;DHT22;9158;51.528;7.192;2023-03-23T01:26:15;12.00;99.90
18067;DHT22;9158;51.528;7.192;2023-03-23T01:26:47;12.00;99.90
18067;DHT22;9158;51.528;7.192;2023-03-23T01:27:18;12.10;99.90
18067;DHT22;9158;51.528;7.192;2023-03-23T01:27:49;12.10;99.90
18067;DHT22;9158;51.528;7.192;2023-03-23T01:28:21;12.10;99.90
18067;DHT22;9158;51.528;7.192;2023-03-23T01:28:53;12.10;1.00
18067;DHT22;9158;51.528;7.192;2023-03-23T01:29:24;12.10;1.00
18067;DHT22;9158;51.528;7.192;2023-03-23T01:29:56;12.10;99.90
18067;DHT22;9158;51.528;7.192;2023-03-23T01:30:27;12.10;99.90
18067;DHT22;9158;51.528;7.192;2023-03-23T01:31:02;12.10;99.90
18067;DHT22;9158;51.528;7.192;2023-03-23T01:31:35;12.10;1.00
18067;DHT22;9158;51.528;7.192;2023-03-23T01:32:07;12.10;1.00
18067;DHT22;9158;51.528;7.192;2023-03-23T01:32:40;12.10;99.90
18067;DHT22;9158;51.528;7.192;2023-03-23T01:33:12;12.10;1.00
18067;DHT22;9158;51.528;7.192;2023-03-23T01:33:44;12.10;99.90
18067;DHT22;9158;51.528;7.192;2023-03-23T01:34:15;12.10;99.90
18067;DHT22;9158;51.528;7.192;2023-03-23T01:34:47;12.10;1.00
18067;DHT22;9158;51.528;7.192;2023-03-23T01:35:18;12.10;99.90
18067;DHT22;9158;51.528;7.192;2023-03-23T01:35:50;12.10;99.90
18067;DHT22;9158;51.528;7.192;2023-03-23T01:36:23;12.10;99.90
18067;DHT22;9158;51.528;7.192;2023-03-23T01:36:57;12.10;99.90
18067;DHT22;9158;51.528;7.192;2023-03-23T01:37:30;12.10;99.90
18067;DHT22;9158;51.528;7.192;2023-03-23T01:38:01;12.10;99.90
18067;DHT22;9158;51.528;7.192;2023-03-23T01:38:33;12.10;99.90
18067;DHT22;9158;51.528;7.192;2023-03-23T01:39:05;12.10;99.90
18067;DHT22;9158;51.528;7.192;2023-03-23T01:39:37;12.10;99.90
18067;DHT22;9158;51.528;7.192;2023-03-23T01:40:09;12.10;99.90
18067;DHT22;9158;51.528;7.192;2023-03-23T01:40:41;12.10;99.90
18067;DHT22;9158;51.528;7.192;2023-03-23T01:41:13;12.10;99.90
18067;DHT22;9158;51.528;7.192;2023-03-23T01:41:46;12.10;99.90
18067;DHT22;9158;51.528;7.192;2023-03-23T01:42:22;12.10;99.90
18067;DHT22;9158;51.528;7.192;2023-03-23T01:42:54;12.10;99.90
18067;DHT22;9158;51.528;7.192;2023-03-23T01:43:26;12.10;99.90
18067;DHT22;9158;51.528;7.192;2023-03-23T01:43:59;12.10;99.90
18067;DHT22;9158;51.528;7.192;2023-03-23T01:45:21;12.00;99.90
18067;DHT22;9158;51.528;7.192;2023-03-23T01:45:54;12.00;99.90
18067;DHT22;9158;51.528;7.192;2023-03-23T01:46:26;12.00;99.90
18067;DHT22;9158;51.528;7.192;2023-03-23T01:46:57;12.00;99.90
18067;DHT22;9158;51.528;7.192;2023-03-23T01:47:29;12.00;99.90
18067;DHT22;9158;51.528;7.192;2023-03-23T01:48:09;12.00;99.90
18067;DHT22;9158;51.528;7.192;2023-03-23T01:48:42;11.90;99.90
18067;DHT22;9158;51.528;7.192;2023-03-23T01:49:17;12.00;99.90
18067;DHT22;9158;51.528;7.192;2023-03-23T01:49:50;11.90;99.90
18067;DHT22;9158;51.528;7.192;2023-03-23T01:50:24;11.90;99.90
18067;DHT22;9158;51.528;7.192;2023-03-23T01:50:57;11.90;99.90
18067;DHT22;9158;51.528;7.192;2023-03-23T01:51:31;12.00;99.90
18067;DHT22;9158;51.528;7.192;2023-03-23T01:52:05;11.90;99.90
18067;DHT22;9158;51.528;7.192;2023-03-23T01:52:39;11.90;1.00
18067;DHT22;9158;51.528;7.192;2023-03-23T01:53:12;11.90;1.00
18067;DHT22;9158;51.528;7.192;2023-03-23T01:53:45;11.90;1.00
18067;DHT22;9158;51.528;7.192;2023-03-23T01:54:20;11.90;1.00
18067;DHT22;9158;51.528;7.192;2023-03-23T01:54:55;11.90;1.00
18067;DHT22;9158;51.528;7.192;2023-03-23T01:55:27;11.90;1.00
18067;DHT22;9158;51.528;7.192;2023-03-23T01:56:00;11.90;1.00
18067;DHT22;9158;51.528;7.192;2023-03-23T01:56:38;11.90;1.00
18067;DHT22;9158;51.528;7.192;2023-03-23T01:57:13;11.80;99.90
18067;DHT22;9158;51.528;7.192;2023-03-23T01:57:46;11.90;99.90
18067;DHT22;9158;51.528;7.192;2023-03-23T01:58:24;11.90;99.90
18067;DHT22;9158;51.528;7.192;2023-03-23T01:58:58;11.90;99.90
18067;DHT22;9158;51.528;7.192;2023-03-23T01:59:31;11.90;78.20
18067;DHT22;9158;51.528;7.192;2023-03-23T02:00:19;12.00;99.90
18067;DHT22;9158;51.528;7.192;2023-03-23T02:00:58;12.00;99.90
18067;DHT22;9158;51.528;7.192;2023-03-23T02:01:33;12.00;43.10
18067;DHT22;9158;51.528;7.192;2023-03-23T02:02:07;12.00;1.00
18067;DHT22;9158;51.528;7.192;2023-03-23T02:02:38;12.00;99.90
18067;DHT22;9158;51.528;7.192;2023-03-23T02:03:12;12.00;1.00
18067;DHT22;9158;51.528;7.192;2023-03-23T02:03:47;12.00;1.00
18067;DHT22;9158;51.528;7.192;2023-03-23T02:04:20;12.00;97.50
18067;DHT22;9158;51.528;7.192;2023-03-23T02:04:57;12.10;99.90
18067;DHT22;9158;51.528;7.192;2023-03-23T02:05:36;12.00;99.90
18067;DHT22;9158;51.528;7.192;2023-03-23T02:06:15;12.00;1.00
18067;DHT22;9158;51.528;7.192;2023-03-23T02:07:03;12.00;1.00
18067;DHT22;9158;51.528;7.192;2023-03-23T02:07:35;12.00;1.00
18067;DHT22;9158;51.528;7.192;2023-03-23T02:08:10;12.00;1.00
18067;DHT22;9158;51.528;7.192;2023-03-23T02:08:43;12.10;1.00
18067;DHT22;9158;51.528;7.192;2023-03-23T02:09:16;12.10;1.00
18067;DHT22;9158;51.528;7.192;2023-03-23T02:09:49;12.10;99.90
18067;DHT22;9158;51.528;7.192;2023-03-23T02:10:21;12.10;99.90
18067;DHT22;9158;51.528;7.192;2023-03-23T02:10:53;12.10;1.00
18067;DHT22;9158;51.528;7.192;2023-03-23T02:11:24;12.10;1.00
18067;DHT22;9158;51.528;7.192;2023-03-23T02:11:56;12.20;1.00
18067;DHT22;9158;51.528;7.192;2023-03-23T02:12:28;12.10;1.00
18067;DHT22;9158;51.528;7.192;2023-03-23T02:13:02;12.10;1.00
18067;DHT22;9158;51.528;7.192;2023-03-23T02:13:33;12.10;1.00
18067;DHT22;9158;51.528;7.192;2023-03-23T02:14:06;12.10;1.00
18067;DHT22;9158;51.528;7.192;2023-03-23T02:14:39;12.10;1.00
18067;DHT22;9158;51.528;7.192;2023-03-23T02:15:10;12.20;1.00
18067;DHT22;9158;51.528;7.192;2023-03-23T02:15:51;12.20;1.00
18067;DHT22;9158;51.528;7.192;2023-03-23T02:16:33;12.20;99.90
18067;DHT22;9158;51.528;7.192;2023-03-23T02:17:09;12.20;1.00
18067;DHT22;9158;51.528;7.192;2023-03-23T02:17:45;12.20;1.00
18067;DHT22;9158;51.528;7.192;2023-03-23T02:18:37;12.20;99.90
18067;DHT22;9158;51.528;7.192;2023-03-23T02:19:41;12.20;1.00
18067;DHT22;9158;51.528;7.192;2023-03-23T02:20:36;12.20;99.90
18067;DHT22;9158;51.528;7.192;2023-03-23T02:22:29;12.20;99.90
18067;DHT22;9158;51.528;7.192;2023-03-23T02:23:19;12.20;99.90
18067;DHT22;9158;51.528;7.192;2023-03-23T02:25:41;12.20;99.90
18067;DHT22;9158;51.528;7.192;2023-03-23T02:27:24;12.20;99.90
18067;DHT22;9158;51.528;7.192;2023-03-23T02:28:17;12.20;1.00
18067;DHT22;9158;51.528;7.192;2023-03-23T02:30:11;12.20;1.00
18067;DHT22;9158;51.528;7.192;2023-03-23T02:30:52;12.20;1.00
18067;DHT22;9158;51.528;7.192;2023-03-23T02:31:46;12.20;1.00
18067;DHT22;9158;51.528;7.192;2023-03-23T02:32:32;12.20;1.00
18067;DHT22;9158;51.528;7.192;2023-03-23T02:33:35;12.10;1.00
18067;DHT22;9158;51.528;7.192;2023-03-23T02:34:09;12.10;1.00
18067;DHT22;9158;51.528;7.192;2023-03-23T02:34:46;12.00;1.00
18067;DHT22;9158;51.528;7.192;2023-03-23T02:35:22;12.00;1.00
18067;DHT22;9158;51.528;7.192;2023-03-23T02:35:56;12.00;1.00
18067;DHT22;9158;51.528;7.192;2023-03-23T02:36:33;11.90;1.00
18067;DHT22;9158;51.528;7.192;2023-03-23T02:37:10;12.00;1.00
18067;DHT22;9158;51.528;7.192;2023-03-23T02:37:48;11.90;1.00
18067;DHT22;9158;51.528;7.192;2023-03-23T02:38:23;11.90;1.00
18067;DHT22;9158;51.528;7.192;2023-03-23T02:39:03;11.90;1.00
18067;DHT22;9158;51.528;7.192;2023-03-23T02:39:39;11.90;1.00
18067;DHT22;9158;51.528;7.192;2023-03-23T02:40:16;11.90;1.00
18067;DHT22;9158;51.528;7.192;2023-03-23T02:40:50;11.90;1.00
18067;DHT22;9158;51.528;7.192;2023-03-23T02:41:25;11.90;1.00
18067;DHT22;9158;51.528;7.192;2023-03-23T02:42:02;11.90;1.00
18067;DHT22;9158;51.528;7.192;2023-03-23T02:42:37;11.90;1.00
18067;DHT22;9158;51.528;7.192;2023-03-23T02:43:10;11.90;1.00
18067;DHT22;9158;51.528;7.192;2023-03-23T02:43:44;11.90;1.00
18067;DHT22;9158;51.528;7.192;2023-03-23T02:44:17;11.90;55.70
18067;DHT22;9158;51.528;7.192;2023-03-23T02:44:49;11.80;89.50
18067;DHT22;9158;51.528;7.192;2023-03-23T02:45:25;11.80;80.80
18067;DHT22;9158;51.528;7.192;2023-03-23T02:45:58;11.80;99.90
18067;DHT22;9158;51.528;7.192;2023-03-23T02:46:31;11.80;92.50
18067;DHT22;9158;51.528;7.192;2023-03-23T02:47:06;11.80;31.80
18067;DHT22;9158;51.528;7.192;2023-03-23T02:47:39;11.80;31.90
18067;DHT22;9158;51.528;7.192;2023-03-23T02:48:15;11.90;1.00
18067;DHT22;9158;51.528;7.192;2023-03-23T02:48:50;11.90;1.00
18067;DHT22;9158;51.528;7.192;2023-03-23T02:49:24;11.90;1.00
18067;DHT22;9158;51.528;7.192;2023-03-23T02:49:58;11.90;1.00
18067;DHT22;9158;51.528;7.192;2023-03-23T02:50:31;11.90;1.00
18067;DHT22;9158;51.528;7.192;2023-03-23T02:51:04;11.90;1.00
18067;DHT22;9158;51.528;7.192;2023-03-23T02:51:36;11.90;1.00
18067;DHT22;9158;51.528;7.192;2023-03-23T02:52:12;11.90;12.30
18067;DHT22;9158;51.528;7.192;2023-03-23T02:52:48;11.80;1.00
18067;DHT22;9158;51.528;7.192;2023-03-23T02:53:22;11.90;2.60
18067;DHT22;9158;51.528;7.192;2023-03-23T02:53:57;11.90;91.70
18067;DHT22;9158;51.528;7.192;2023-03-23T02:54:28;11.80;49.10
18067;DHT22;9158;51.528;7.192;2023-03-23T02:55:01;11.90;58.10
18067;DHT22;9158;51.528;7.192;2023-03-23T02:55:34;11.80;99.90
18067;DHT22;9158;51.528;7.192;2023-03-23T02:56:12;11.80;99.90
18067;DHT22;9158;51.528;7.192;2023-03-23T02:56:45;11.80;99.90
18067;DHT22;9158;51.528;7.192;2023-03-23T02:57:26;11.80;99.90
18067;DHT22;9158;51.528;7.192;2023-03-23T02:58:00;11.80;99.90
18067;DHT22;9158;51.528;7.192;2023-03-23T02:58:33;11.80;99.90
18067;DHT22;9158;51.528;7.192;2023-03-23T02:59:06;11.80;99.90
18067;DHT22;9158;51.528;7.192;2023-03-23T02:59:38;11.80;99.90
18067;DHT22;9158;51.528;7.192;2023-03-23T03:00:13;11.80;99.90
18067;DHT22;9158;51.528;7.192;2023-03-23T03:00:45;11.80;99.90
18067;DHT22;9158;51.528;7.192;2023-03-23T03:01:51;11.80;99.90
18067;DHT22;9158;51.528;7.192;2023-03-23T03:02:26;11.80;99.90
18067;DHT22;9158;51.528;7.192;2023-03-23T03:02:59;11.80;99.90
18067;DHT22;9158;51.528;7.192;2023-03-23T03:03:34;11.80;99.90
18067;DHT22;9158;51.528;7.192;2023-03-23T03:04:11;11.80;99.90
18067;DHT22;9158;51.528;7.192;2023-03-23T03:04:50;11.80;99.90
18067;DHT22;9158;51.528;7.192;2023-03-23T03:05:35;11.80;99.90
18067;DHT22;9158;51.528;7.192;2023-03-23T03:06:19;11.80;99.90
18067;DHT22;9158;51.528;7.192;2023-03-23T03:08:00;11.80;99.90
18067;DHT22;9158;51.528;7.192;2023-03-23T03:08:37;11.80;99.90
18067;DHT22;9158;51.528;7.192;2023-03-23T03:09:20;11.80;1.00
18067;DHT22;9158;51.528;7.192;2023-03-23T03:09:58;11.80;1.00
18067;DHT22;9158;51.528;7.192;2023-03-23T03:10:36;11.80;1.00
18067;DHT22;9158;51.528;7.192;2023-03-23T03:11:12;11.80;99.90
18067;DHT22;9158;51.528;7.192;2023-03-23T03:11:47;11.80;1.00
18067;DHT22;9158;51.528;7.192;2023-03-23T03:12:27;11.80;1.00
18067;DHT22;9158;51.528;7.192;2023-03-23T03:13:05;11.80;99.90
18067;DHT22;9158;51.528;7.192;2023-03-23T03:13:45;11.80;99.90
18067;DHT22;9158;51.528;7.192;2023-03-23T03:14:21;11.80;1.00
18067;DHT22;9158;51.528;7.192;2023-03-23T03:14:58;11.80;1.00
18067;DHT22;9158;51.528;7.192;2023-03-23T03:15:39;11.80;99.90
18067;DHT22;9158;51.528;7.192;2023-03-23T03:16:18;11.80;99.90
18067;DHT22;9158;51.528;7.192;2023-03-23T03:16:56;11.80;99.90
18067;DHT22;9158;51.528;7.192;2023-03-23T03:17:31;11.80;99.90
18067;DHT22;9158;51.528;7.192;2023-03-23T03:18:09;11.80;99.90
18067;DHT22;9158;51.528;7.192;2023-03-23T03:18:46;11.80;99.90
18067;DHT22;9158;51.528;7.192;2023-03-23T03:19:23;11.80;99.90
18067;DHT22;9158;51.528;7.192;2023-03-23T03:19:59;11.80;99.90
18067;DHT22;9158;51.528;7.192;2023-03-23T03:20:44;11.80;99.90
18067;DHT22;9158;51.528;7.192;2023-03-23T03:21:18;11.80;99.90
18067;DHT22;9158;51.528;7.192;2023-03-23T03:21:53;11.80;99.90
18067;DHT22;9158;51.528;7.192;2023-03-23T03:22:35;11.80;99.90
18067;DHT22;9158;51.528;7.192;2023-03-23T03:23:14;11.80;99.90
18067;DHT22;9158;51.528;7.192;2023-03-23T03:23:49;11.80;99.90
18067;DHT22;9158;51.528;7.192;2023-03-23T03:24:22;11.80;99.90
18067;DHT22;9158;51.528;7.192;2023-03-23T03:24:57;11.80;99.90
18067;DHT22;9158;51.528;7.192;2023-03-23T03:25:28;11.80;99.90
18067;DHT22;9158;51.528;7.192;2023-03-23T03:26:02;11.80;99.90
18067;DHT22;9158;51.528;7.192;2023-03-23T03:26:57;11.80;99.90
18067;DHT22;9158;51.528;7.192;2023-03-23T03:27:47;11.80;99.90
18067;DHT22;9158;51.528;7.192;2023-03-23T03:28:27;11.80;1.00
18067;DHT22;9158;51.528;7.192;2023-03-23T03:28:59;11.80;99.90
18067;DHT22;9158;51.528;7.192;2023-03-23T03:29:34;11.80;1.00
18067;DHT22;9158;51.528;7.192;2023-03-23T03:30:10;11.80;1.00
18067;DHT22;9158;51.528;7.192;2023-03-23T03:30:45;11.80;99.90
18067;DHT22;9158;51.528;7.192;2023-03-23T03:31:20;11.80;1.00
18067;DHT22;9158;51.528;7.192;2023-03-23T03:31:53;11.80;1.00
18067;DHT22;9158;51.528;7.192;2023-03-23T03:32:32;11.80;1.00
18067;DHT22;9158;51.528;7.192;2023-03-23T03:33:07;11.90;99.90
18067;DHT22;9158;51.528;7.192;2023-03-23T03:33:39;11.80;1.00
18067;DHT22;9158;51.528;7.192;2023-03-23T03:34:11;11.80;99.90
18067;DHT22;9158;51.528;7.192;2023-03-23T03:34:44;11.80;99.90
18067;DHT22;9158;51.528;7.192;2023-03-23T03:35:16;11.80;99.90
18067;DHT22;9158;51.528;7.192;2023-03-23T03:35:48;11.90;99.90
18067;DHT22;9158;51.528;7.192;2023-03-23T03:36:22;11.80;99.90
18067;DHT22;9158;51.528;7.192;2023-03-23T03:36:55;11.90;99.90
18067;DHT22;9158;51.528;7.192;2023-03-23T03:37:34;11.90;99.90
18067;DHT22;9158;51.528;7.192;2023-03-23T03:38:09;11.90;54.60
18067;DHT22;9158;51.528;7.192;2023-03-23T03:38:42;11.90;99.90
18067;DHT22;9158;51.528;7.192;2023-03-23T03:39:14;11.90;99.90
18067;DHT22;9158;51.528;7.192;2023-03-23T03:39:48;11.90;99.90
18067;DHT22;9158;51.528;7.192;2023-03-23T03:40:21;11.90;99.90
18067;DHT22;9158;51.528;7.192;2023-03-23T03:40:55;11.90;99.90
18067;DHT22;9158;51.528;7.192;2023-03-23T03:41:28;11.90;99.90
18067;DHT22;9158;51.528;7.192;2023-03-23T03:41:59;11.90;99.90
18067;DHT22;9158;51.528;7.192;2023-03-23T03:42:31;11.90;99.90
18067;DHT22;9158;51.528;7.192;2023-03-23T03:43:02;11.90;98.50
18067;DHT22;9158;51.528;7.192;2023-03-23T03:43:35;11.90;94.60
18067;DHT22;9158;51.528;7.192;2023-03-23T03:44:07;11.90;99.90
18067;DHT22;9158;51.528;7.192;2023-03-23T03:44:39;11.90;85.30
18067;DHT22;9158;51.528;7.192;2023-03-23T03:45:14;11.90;64.40
18067;DHT22;9158;51.528;7.192;2023-03-23T03:45:46;11.90;99.90
18067;DHT22;9158;51.528;7.192;2023-03-23T03:46:17;11.90;99.90
18067;DHT22;9158;51.528;7.192;2023-03-23T03:46:49;11.90;64.10
18067;DHT22;9158;51.528;7.192;2023-03-23T03:47:20;11.90;30.60
18067;DHT22;9158;51.528;7.192;2023-03-23T03:47:51;11.90;17.30
18067;DHT22;9158;51.528;7.192;2023-03-23T03:48:23;11.90;1.00
18067;DHT22;9158;51.528;7.192;2023-03-23T03:48:54;11.90;1.00
18067;DHT22;9158;51.528;7.192;2023-03-23T03:49:27;11.90;1.00
18067;DHT22;9158;51.528;7.192;2023-03-23T03:50:00;11.90;1.00
18067;DHT22;9158;51.528;7.192;2023-03-23T03:50:31;11.90;1.00
18067;DHT22;9158;51.528;7.192;2023-03-23T03:51:04;12.00;1.00
18067;DHT22;9158;51.528;7.192;2023-03-23T03:51:40;12.00;1.00